sensor_id;sensor_type;location;lat;lon;timestamp;pressure;altitude;pressure_sealevel;temperature;humidity
41945;BME280;63122;52.424;13.458;2023-04-01T00:02:44;99101.06;;;8.41;100.00
41945;BME280;63122;52.424;13.458;2023-04-01T00:05:59;99099.56;;;8.46;100.00
41945;BME280;63122;52.424;13.458;2023-04-01T00:13:15;99100.06;;;8.42;100.00
41945;BME280;63122;52.424;13.458;2023-04-01T00:20:46;99097.56;;;8.48;100.00
41945;BME280;63122;52.424;13.458;2023-04-01T00:24:01;99099.72;;;8.53;100.00
41945;BME280;63122;52.424;13.458;2023-04-01T00:27:02;99104.97;;;8.45;100.00
41945;BME280;63122;52.424;13.458;2023-04-01T00:30:28;99099.72;;;8.45;100.00
41945;BME280;63122;52.424;13.458;2023-04-01T00:34:00;99102.19;;;8.46;100.00
41945;BME280;63122;52.424;13.458;2023-04-01T00:37:22;99100.16;;;8.57;100.00
41945;BME280;63122;52.424;13.458;2023-04-01T00:46:44;99103.69;;;8.41;100.00
41945;BME280;63122;52.424;13.458;2023-04-01T00:58:31;99105.81;;;8.45;100.00
41945;BME280;63122;52.424;13.458;2023-04-01T01:00:28;99105.81;;;8.45;100.00
41945;BME280;63122;52.424;13.458;2023-04-01T01:02:24;99111.94;;;8.38;100.00
41945;BME280;63122;52.424;13.458;2023-04-01T01:04:24;99102.41;;;8.36;100.00
41945;BME280;63122;52.424;13.458;2023-04-01T01:06:35;99101.25;;;8.39;100.00
41945;BME280;63122;52.424;13.458;2023-04-01T01:08:47;99109.31;;;8.38;100.00
41945;BME280;63122;52.424;13.458;2023-04-01T01:10:49;99107.66;;;8.36;100.00
41945;BME280;63122;52.424;13.458;2023-04-01T01:20:48;99111.16;;;8.29;100.00
41945;BME280;63122;52.424;13.458;2023-04-01T03:55:14;99173.31;;;8.45;100.00
41945;BME280;63122;52.424;13.458;2023-04-01T04:01:54;99177.56;;;8.46;100.00
41945;BME280;63122;52.424;13.458;2023-04-01T04:03:54;99183.81;;;8.45;100.00
41945;BME280;63122;52.424;13.458;2023-04-01T04:06:11;99182.72;;;8.39;100.00
41945;BME280;63122;52.424;13.458;2023-04-01T04:08:26;99186.00;;;8.41;100.00
41945;BME280;63122;52.424;13.458;2023-04-01T04:10:30;99186.94;;;8.48;100.00
41945;BME280;63122;52.424;13.458;2023-04-01T04:12:38;99187.91;;;8.47;100.00
41945;BME280;63122;52.424;13.458;2023-04-01T04:14:39;99192.84;;;8.50;100.00
41945;BME280;63122;52.424;13.458;2023-04-01T04:16:57;99188.06;;;8.54;100.00
41945;BME280;63122;52.424;13.458;2023-04-01T04:19:40;99193.66;;;8.51;100.00
41945;BME280;63122;52.424;13.458;2023-04-01T04:21:59;99196.59;;;8.56;100.00
41945;BME280;63122;52.424;13.458;2023-04-01T04:24:15;99199.69;;;8.60;100.00
41945;BME280;63122;52.424;13.458;2023-04-01T04:26:57;99197.25;;;8.58;100.00
41945;BME280;63122;52.424;13.458;2023-04-01T04:29:21;99200.31;;;8.62;100.00
41945;BME280;63122;52.424;13.458;2023-04-01T04:31:49;99205.47;;;8.55;100.00
41945;BME280;63122;52.424;13.458;2023-04-01T04:40:04;99206.13;;;8.57;100.00
41945;BME280;63122;52.424;13.458;2023-04-01T04:43:22;99199.75;;;8.52;100.00
41945;BME280;63122;52.424;13.458;2023-04-01T04:53:47;99212.06;;;8.51;100.00
41945;BME280;63122;52.424;13.458;2023-04-01T06:08:51;99261.69;;;8.77;100.00
41945;BME280;63122;52.424;13.458;2023-04-01T06:15:22;99265.53;;;8.67;100.00
41945;BME280;63122;52.424;13.458;2023-04-01T06:50:05;99293.81;;;8.64;100.00
41945;BME280;63122;52.424;13.458;2023-04-01T06:52:51;99292.47;;;8.69;100.00
41945;BME280;63122;52.424;13.458;2023-04-01T06:54:55;99292.59;;;8.75;100.00
41945;BME280;63122;52.424;13.458;2023-04-01T06:56:58;99297.22;;;8.73;100.00
41945;BME280;63122;52.424;13.458;2023-04-01T06:58:58;99295.44;;;8.66;100.00
41945;BME280;63122;52.424;13.458;2023-04-01T07:00:58;99300.41;;;8.60;100.00
41945;BME280;63122;52.424;13.458;2023-04-01T07:03:02;99302.19;;;8.60;100.00
41945;BME280;63122;52.424;13.458;2023-04-01T07:05:04;99303.03;;;8.60;100.00
41945;BME280;63122;52.424;13.458;2023-04-01T07:07:02;99304.16;;;8.66;100.00
41945;BME280;63122;52.424;13.458;2023-04-01T07:09:03;99307.19;;;8.78;100.00
41945;BME280;63122;52.424;13.458;2023-04-01T07:11:02;99305.81;;;8.90;100.00
41945;BME280;63122;52.424;13.458;2023-04-01T07:13:00;99315.63;;;8.97;100.00
41945;BME280;63122;52.424;13.458;2023-04-01T07:14:59;99307.09;;;8.95;100.00
41945;BME280;63122;52.424;13.458;2023-04-01T07:17:01;99308.88;;;9.02;100.00
41945;BME280;63122;52.424;13.458;2023-04-01T07:19:12;99308.88;;;9.02;100.00
41945;BME280;63122;52.424;13.458;2023-04-01T07:21:22;99307.25;;;9.01;100.00
41945;BME280;63122;52.424;13.458;2023-04-01T07:23:22;99310.00;;;9.08;100.00
41945;BME280;63122;52.424;13.458;2023-04-01T07:25:21;99310.63;;;9.10;100.00
41945;BME280;63122;52.424;13.458;2023-04-01T07:27:18;99312.72;;;9.15;100.00
41945;BME280;63122;52.424;13.458;2023-04-01T07:29:14;99308.81;;;9.11;100.00
41945;BME280;63122;52.424;13.458;2023-04-01T07:31:20;99311.31;;;9.04;100.00
41945;BME280;63122;52.424;13.458;2023-04-01T07:33:37;99319.53;;;9.09;100.00
41945;BME280;63122;52.424;13.458;2023-04-01T07:35:38;99320.47;;;9.16;100.00
41945;BME280;63122;52.424;13.458;2023-04-01T07:37:49;99316.03;;;9.32;100.00
41945;BME280;63122;52.424;13.458;2023-04-01T07:41:11;99316.72;;;9.49;100.00
41945;BME280;63122;52.424;13.458;2023-04-01T07:43:20;99326.75;;;9.54;100.00
41945;BME280;63122;52.424;13.458;2023-04-01T07:45:22;99322.34;;;9.46;100.00
41945;BME280;63122;52.424;13.458;2023-04-01T07:47:33;99315.56;;;9.51;100.00
41945;BME280;63122;52.424;13.458;2023-04-01T07:49:35;99322.22;;;9.62;100.00
41945;BME280;63122;52.424;13.458;2023-04-01T07:51:40;99320.06;;;9.66;100.00
41945;BME280;63122;52.424;13.458;2023-04-01T07:53:44;99324.94;;;9.54;100.00
41945;BME280;63122;52.424;13.458;2023-04-01T07:55:45;99320.75;;;9.60;100.00
41945;BME280;63122;52.424;13.458;2023-04-01T07:57:49;99317.34;;;9.74;100.00
41945;BME280;63122;52.424;13.458;2023-04-01T07:59:54;99319.25;;;9.80;100.00
41945;BME280;63122;52.424;13.458;2023-04-01T08:02:18;99320.91;;;9.82;100.00
41945;BME280;63122;52.424;13.458;2023-04-01T08:09:44;99324.28;;;9.90;100.00
41945;BME280;63122;52.424;13.458;2023-04-01T08:15:07;99326.91;;;9.90;100.00
41945;BME280;63122;52.424;13.458;2023-04-01T08:18:35;99327.53;;;9.92;100.00
41945;BME280;63122;52.424;13.458;2023-04-01T08:24:19;99331.44;;;9.97;100.00
41945;BME280;63122;52.424;13.458;2023-04-01T08:26:28;99333.09;;;9.98;100.00
41945;BME280;63122;52.424;13.458;2023-04-01T08:28:30;99334.00;;;10.05;100.00
41945;BME280;63122;52.424;13.458;2023-04-01T08:30:33;99331.47;;;10.12;100.00
41945;BME280;63122;52.424;13.458;2023-04-01T08:32:34;99332.34;;;10.04;100.00
41945;BME280;63122;52.424;13.458;2023-04-01T08:34:35;99340.81;;;9.99;100.00
41945;BME280;63122;52.424;13.458;2023-04-01T08:36:34;99336.28;;;9.93;100.00
41945;BME280;63122;52.424;13.458;2023-04-01T08:38:32;99337.34;;;9.84;100.00
41945;BME280;63122;52.424;13.458;2023-04-01T08:40:57;99341.25;;;9.88;100.00
41945;BME280;63122;52.424;13.458;2023-04-01T08:43:03;99334.53;;;9.85;100.00
41945;BME280;63122;52.424;13.458;2023-04-01T08:45:29;99338.59;;;9.73;100.00
41945;BME280;63122;52.424;13.458;2023-04-01T08:56:29;99354.78;;;9.85;100.00
41945;BME280;63122;52.424;13.458;2023-04-01T09:15:36;99374.59;;;9.96;100.00
41945;BME280;63122;52.424;13.458;2023-04-01T09:17:51;99381.22;;;9.91;100.00
41945;BME280;63122;52.424;13.458;2023-04-01T09:20:08;99380.69;;;9.96;100.00
41945;BME280;63122;52.424;13.458;2023-04-01T09:22:22;99388.66;;;9.88;100.00
41945;BME280;63122;52.424;13.458;2023-04-01T09:24:31;99391.13;;;9.89;100.00
41945;BME280;63122;52.424;13.458;2023-04-01T09:26:43;99395.56;;;9.89;100.00
41945;BME280;63122;52.424;13.458;2023-04-01T09:28:48;99397.28;;;9.82;100.00
41945;BME280;63122;52.424;13.458;2023-04-01T09:31:01;99399.91;;;9.82;100.00
41945;BME280;63122;52.424;13.458;2023-04-01T09:33:36;99402.81;;;9.87;
41945;BME280;63122;52.424;13.458;2023-04-01T09:35:39;99409.38;;;9.91;100.00
41945;BME280;63122;52.424;13.458;2023-04-01T09:38:00;99405.94;;;9.90;100.00
41945;BME280;63122;52.424;13.458;2023-04-01T09:40:16;99400.66;;;9.90;100.00
41945;BME280;63122;52.424;13.458;2023-04-01T09:42:29;99403.94;;;9.92;100.00
41945;BME280;63122;52.424;13.458;2023-04-01T09:44:35;99407.22;;;9.94;100.00
41945;BME280;63122;52.424;13.458;2023-04-01T09:46:49;99405.56;;;9.93;100.00
41945;BME280;63122;52.424;13.458;2023-04-01T09:51:37;99410.84;;;9.93;100.00
41945;BME280;63122;52.424;13.458;2023-04-01T09:53:47;99416.22;;;10.00;100.00
41945;BME280;63122;52.424;13.458;2023-04-01T09:58:28;99433.06;;;10.14;100.00
41945;BME280;63122;52.424;13.458;2023-04-01T10:03:37;99425.03;;;10.07;100.00
41945;BME280;63122;52.424;13.458;2023-04-01T10:08:36;99433.56;;;9.94;100.00
41945;BME280;63122;52.424;13.458;2023-04-01T10:11:10;99435.81;;;9.98;100.00
41945;BME280;63122;52.424;13.458;2023-04-01T10:29:20;99439.47;;;9.97;100.00
41945;BME280;63122;52.424;13.458;2023-04-01T10:31:43;99438.66;;;9.96;100.00
41945;BME280;63122;52.424;13.458;2023-04-01T10:34:10;99444.22;;;10.01;100.00
41945;BME280;63122;52.424;13.458;2023-04-01T10:36:35;99444.03;;;10.18;100.00
41945;BME280;63122;52.424;13.458;2023-04-01T10:39:10;99449.50;;;10.16;100.00
41945;BME280;63122;52.424;13.458;2023-04-01T10:43:57;99448.59;;;10.09;100.00
41945;BME280;63122;52.424;13.458;2023-04-01T10:54:49;99458.44;;;9.92;100.00
41945;BME280;63122;52.424;13.458;2023-04-01T10:56:55;99451.19;;;9.94;100.00
41945;BME280;63122;52.424;13.458;2023-04-01T11:01:46;99455.75;;;10.00;100.00
41945;BME280;63122;52.424;13.458;2023-04-01T11:07:07;99454.16;;;9.91;100.00
41945;BME280;63122;52.424;13.458;2023-04-01T11:09:44;99465.16;;;9.94;100.00
41945;BME280;63122;52.424;13.458;2023-04-01T11:12:49;99461.09;;;9.92;100.00
41945;BME280;63122;52.424;13.458;2023-04-01T11:26:43;99477.34;;;9.96;100.00
41945;BME280;63122;52.424;13.458;2023-04-01T11:37:24;99493.72;;;9.83;100.00
41945;BME280;63122;52.424;13.458;2023-04-01T11:39:36;99493.84;;;9.89;100.00
41945;BME280;63122;52.424;13.458;2023-04-01T11:42:24;99495.50;;;9.90;100.00
41945;BME280;63122;52.424;13.458;2023-04-01T11:45:19;99501.28;;;9.86;100.00
41945;BME280;63122;52.424;13.458;2023-04-01T11:50:39;99510.16;;;9.93;100.00
41945;BME280;63122;52.424;13.458;2023-04-01T12:01:03;99516.94;;;9.87;100.00
41945;BME280;63122;52.424;13.458;2023-04-01T12:07:19;99529.44;;;9.85;100.00
41945;BME280;63122;52.424;13.458;2023-04-01T12:09:52;99529.09;;;9.88;100.00
41945;BME280;63122;52.424;13.458;2023-04-01T12:12:36;99531.53;;;9.90;100.00
41945;BME280;63122;52.424;13.458;2023-04-01T12:17:21;99533.19;;;9.91;100.00
41945;BME280;63122;52.424;13.458;2023-04-01T12:18:26;99531.91;;;9.87;100.00
41945;BME280;63122;52.424;13.458;2023-04-01T12:23:32;99541.97;;;9.83;100.00
41945;BME280;63122;52.424;13.458;2023-04-01T12:26:03;99542.44;;;9.87;100.00
41945;BME280;63122;52.424;13.458;2023-04-01T12:28:10;99534.84;;;9.92;100.00
41945;BME280;63122;52.424;13.458;2023-04-01T12:30:53;99540.28;;;9.90;100.00
41945;BME280;63122;52.424;13.458;2023-04-01T12:33:04;99547.03;;;9.93;100.00
41945;BME280;63122;52.424;13.458;2023-04-01T12:35:39;99541.91;;;9.91;100.00
41945;BME280;63122;52.424;13.458;2023-04-01T12:38:07;99545.69;;;9.97;100.00
41945;BME280;63122;52.424;13.458;2023-04-01T12:41:23;99554.16;;;10.07;100.00
41945;BME280;63122;52.424;13.458;2023-04-01T12:44:04;99555.25;;;9.90;100.00
41945;BME280;63122;52.424;13.458;2023-04-01T12:46:13;99553.81;;;9.87;100.00
41945;BME280;63122;52.424;13.458;2023-04-01T12:49:00;99557.28;;;9.79;100.00
41945;BME280;63122;52.424;13.458;2023-04-01T12:51:26;99552.66;;;9.82;100.00
41945;BME280;63122;52.424;13.458;2023-04-01T12:53:40;99553.31;;;9.84;100.00
41945;BME280;63122;52.424;13.458;2023-04-01T12:55:44;99558.13;;;9.80;100.00
41945;BME280;63122;52.424;13.458;2023-04-01T12:58:38;99562.28;;;9.74;100.00
41945;BME280;63122;52.424;13.458;2023-04-01T13:00:58;99563.44;;;9.72;100.00
41945;BME280;63122;52.424;13.458;2023-04-01T13:03:18;99569.03;;;9.69;100.00
41945;BME280;63122;52.424;13.458;2023-04-01T13:05:29;99571.69;;;9.69;100.00
41945;BME280;63122;52.424;13.458;2023-04-01T13:07:48;99575.13;;;9.69;100.00
41945;BME280;63122;52.424;13.458;2023-04-01T13:09:52;99582.56;;;9.65;100.00
41945;BME280;63122;52.424;13.458;2023-04-01T13:12:14;99577.28;;;9.65;100.00
41945;BME280;63122;52.424;13.458;2023-04-01T13:14:40;99587.22;;;9.55;100.00
41945;BME280;63122;52.424;13.458;2023-04-01T13:16:46;99584.25;;;9.58;100.00
41945;BME280;63122;52.424;13.458;2023-04-01T13:18:58;99591.28;;;9.66;100.00
41945;BME280;63122;52.424;13.458;2023-04-01T13:21:04;99595.22;;;9.70;100.00
41945;BME280;63122;52.424;13.458;2023-04-01T13:23:08;99596.06;;;9.62;100.00
41945;BME280;63122;52.424;13.458;2023-04-01T13:25:19;99596.72;;;9.64;100.00
41945;BME280;63122;52.424;13.458;2023-04-01T13:27:24;99599.69;;;9.61;100.00
41945;BME280;63122;52.424;13.458;2023-04-01T13:29:27;99602.84;;;9.57;100.00
41945;BME280;63122;52.424;13.458;2023-04-01T13:31:47;99606.81;;;9.53;100.00
41945;BME280;63122;52.424;13.458;2023-04-01T13:33:58;99602.97;;;9.63;100.00
41945;BME280;63122;52.424;13.458;2023-04-01T13:36:07;99605.59;;;9.63;100.00
41945;BME280;63122;52.424;13.458;2023-04-01T13:38:35;99617.63;;;9.66;100.00
41945;BME280;63122;52.424;13.458;2023-04-01T13:41:49;99616.47;;;9.60;100.00
41945;BME280;63122;52.424;13.458;2023-04-01T13:43:58;99618.13;;;9.61;100.00
41945;BME280;63122;52.424;13.458;2023-04-01T13:46:41;99622.78;;;9.51;100.00
41945;BME280;63122;52.424;13.458;2023-04-01T13:48:54;99620.97;;;9.51;100.00
41945;BME280;63122;52.424;13.458;2023-04-01T13:51:18;99621.25;;;9.57;100.00
41945;BME280;63122;52.424;13.458;2023-04-01T13:53:55;99631.97;;;9.55;100.00
41945;BME280;63122;52.424;13.458;2023-04-01T13:56:19;99628.50;;;9.55;100.00
41945;BME280;63122;52.424;13.458;2023-04-01T14:01:46;99634.78;;;9.54;100.00
41945;BME280;63122;52.424;13.458;2023-04-01T14:04:47;99631.50;;;9.51;100.00
41945;BME280;63122;52.424;13.458;2023-04-01T14:07:31;99639.41;;;9.43;100.00
41945;BME280;63122;52.424;13.458;2023-04-01T14:11:20;99635.16;;;9.42;100.00
41945;BME280;63122;52.424;13.458;2023-04-01T14:14:24;99653.88;;;9.47;100.00
41945;BME280;63122;52.424;13.458;2023-04-01T14:22:32;99666.72;;;9.42;100.00
41945;BME280;63122;52.424;13.458;2023-04-01T14:27:43;99670.19;;;9.34;100.00
41945;BME280;63122;52.424;13.458;2023-04-01T14:30:41;99672.84;;;9.34;100.00
41945;BME280;63122;52.424;13.458;2023-04-01T14:33:21;99678.25;;;9.33;100.00
41945;BME280;63122;52.424;13.458;2023-04-01T14:35:34;99673.00;;;9.33;100.00
41945;BME280;63122;52.424;13.458;2023-04-01T14:37:52;99682.56;;;9.26;100.00
41945;BME280;63122;52.424;13.458;2023-04-01T14:40:19;99688.97;;;9.23;100.00
41945;BME280;63122;52.424;13.458;2023-04-01T14:42:44;99688.47;;;9.19;100.00
41945;BME280;63122;52.424;13.458;2023-04-01T14:47:43;99691.78;;;9.13;100.00
41945;BME280;63122;52.424;13.458;2023-04-01T14:49:43;99696.41;;;9.11;100.00
41945;BME280;63122;52.424;13.458;2023-04-01T14:51:47;99702.66;;;9.10;100.00
41945;BME280;63122;52.424;13.458;2023-04-01T14:54:06;99699.38;;;9.08;100.00
41945;BME280;63122;52.424;13.458;2023-04-01T14:56:10;99706.75;;;9.04;100.00
41945;BME280;63122;52.424;13.458;2023-04-01T14:58:40;99704.28;;;9.03;100.00
41945;BME280;63122;52.424;13.458;2023-04-01T15:00:55;99711.84;;;9.06;100.00
41945;BME280;63122;52.424;13.458;2023-04-01T15:03:11;99711.84;;;8.98;100.00
41945;BME280;63122;52.424;13.458;2023-04-01T15:05:39;99714.97;;;8.85;100.00
41945;BME280;63122;52.424;13.458;2023-04-01T15:08:06;99708.72;;;8.77;100.00
41945;BME280;63122;52.424;13.458;2023-04-01T15:10:12;99719.75;;;8.81;100.00
41945;BME280;63122;52.424;13.458;2023-04-01T15:12:27;99713.78;;;8.79;100.00
41945;BME280;63122;52.424;13.458;2023-04-01T15:15:02;99717.59;;;8.76;100.00
41945;BME280;63122;52.424;13.458;2023-04-01T15:17:42;99726.47;;;8.75;100.00
41945;BME280;63122;52.424;13.458;2023-04-01T15:20:21;99725.81;;;8.73;100.00
41945;BME280;63122;52.424;13.458;2023-04-01T15:22:51;99726.47;;;8.67;100.00
41945;BME280;63122;52.424;13.458;2023-04-01T15:25:22;99732.19;;;8.62;100.00
41945;BME280;63122;52.424;13.458;2023-04-01T15:27:49;99743.38;;;8.56;100.00
41945;BME280;63122;52.424;13.458;2023-04-01T15:30:03;99743.84;;;8.52;100.00
41945;BME280;63122;52.424;13.458;2023-04-01T15:33:01;99732.84;;;8.56;100.00
41945;BME280;63122;52.424;13.458;2023-04-01T15:36:15;99752.25;;;8.55;100.00
41945;BME280;63122;52.424;13.458;2023-04-01T15:39:31;99756.09;;;8.43;100.00
41945;BME280;63122;52.424;13.458;2023-04-01T15:42:11;99761.22;;;8.44;100.00
41945;BME280;63122;52.424;13.458;2023-04-01T15:44:33;99762.25;;;8.52;100.00
41945;BME280;63122;52.424;13.458;2023-04-01T15:46:55;99762.91;;;8.54;100.00
41945;BME280;63122;52.424;13.458;2023-04-01T15:49:11;99769.28;;;8.51;100.00
41945;BME280;63122;52.424;13.458;2023-04-01T15:51:20;99774.34;;;8.44;100.00
41945;BME280;63122;52.424;13.458;2023-04-01T15:53:47;99774.50;;;8.43;100.00
41945;BME280;63122;52.424;13.458;2023-04-01T15:55:50;99778.91;;;8.34;100.00
41945;BME280;63122;52.424;13.458;2023-04-01T15:58:05;99782.47;;;8.25;100.00
41945;BME280;63122;52.424;13.458;2023-04-01T16:00:41;99791.66;;;8.20;100.00
41945;BME280;63122;52.424;13.458;2023-04-01T16:02:48;99787.53;;;8.18;100.00
41945;BME280;63122;52.424;13.458;2023-04-01T16:04:55;99785.88;;;8.09;100.00
41945;BME280;63122;52.424;13.458;2023-04-01T16:07:02;99790.97;;;8.10;100.00
41945;BME280;63122;52.424;13.458;2023-04-01T16:09:07;99791.31;;;8.15;100.00
41945;BME280;63122;52.424;13.458;2023-04-01T16:11:18;99799.53;;;8.12;100.00
41945;BME280;63122;52.424;13.458;2023-04-01T16:13:28;99794.56;;;8.09;100.00
41945;BME280;63122;52.424;13.458;2023-04-01T16:15:29;99802.50;;;8.17;100.00
41945;BME280;63122;52.424;13.458;2023-04-01T16:17:41;99802.97;;;8.13;100.00
41945;BME280;63122;52.424;13.458;2023-04-01T16:19:49;99806.75;;;8.10;100.00
41945;BME280;63122;52.424;13.458;2023-04-01T16:21:50;99810.03;;;8.12;100.00
41945;BME280;63122;52.424;13.458;2023-04-01T16:23:50;99817.09;;;8.20;100.00
41945;BME280;63122;52.424;13.458;2023-04-01T16:25:52;99817.59;;;8.15;100.00
41945;BME280;63122;52.424;13.458;2023-04-01T16:27:56;99825.13;;;8.10;100.00
41945;BME280;63122;52.424;13.458;2023-04-01T16:30:31;99828.22;;;8.05;100.00
41945;BME280;63122;52.424;13.458;2023-04-01T16:33:01;99825.22;;;8.00;100.00
41945;BME280;63122;52.424;13.458;2023-04-01T16:35:29;99831.09;;;7.94;100.00
41945;BME280;63122;52.424;13.458;2023-04-01T16:37:33;99835.34;;;7.95;100.00
41945;BME280;63122;52.424;13.458;2023-04-01T16:39:47;99839.44;;;7.89;100.00
41945;BME280;63122;52.424;13.458;2023-04-01T16:41:49;99835.22;;;7.97;100.00
41945;BME280;63122;52.424;13.458;2023-04-01T16:43:57;99842.31;;;8.04;100.00
41945;BME280;63122;52.424;13.458;2023-04-01T16:46:14;99841.91;;;7.91;100.00
41945;BME280;63122;52.424;13.458;2023-04-01T16:48:15;99852.22;;;7.84;100.00
41945;BME280;63122;52.424;13.458;2023-04-01T16:50:15;99854.22;;;7.90;100.00
41945;BME280;63122;52.424;13.458;2023-04-01T16:52:16;99861.56;;;7.87;100.00
41945;BME280;63122;52.424;13.458;2023-04-01T16:54:16;99863.53;;;7.85;100.00
41945;BME280;63122;52.424;13.458;2023-04-01T16:56:20;99866.31;;;7.83;100.00
41945;BME280;63122;52.424;13.458;2023-04-01T16:58:22;99870.22;;;7.79;100.00
41945;BME280;63122;52.424;13.458;2023-04-01T17:00:26;99866.31;;;7.83;100.00
41945;BME280;63122;52.424;13.458;2023-04-01T17:02:37;99876.44;;;7.78;100.00
41945;BME280;63122;52.424;13.458;2023-04-01T17:05:13;99881.81;;;7.68;100.00
41945;BME280;63122;52.424;13.458;2023-04-01T17:07:21;99881.41;;;7.63;100.00
41945;BME280;63122;52.424;13.458;2023-04-01T17:09:41;99890.25;;;7.62;100.00
41945;BME280;63122;52.424;13.458;2023-04-01T17:11:51;99894.16;;;7.58;100.00
41945;BME280;63122;52.424;13.458;2023-04-01T17:17:44;99911.78;;;7.66;100.00
41945;BME280;63122;52.424;13.458;2023-04-01T17:20:00;99906.63;;;7.56;100.00
41945;BME280;63122;52.424;13.458;2023-04-01T17:22:52;99908.56;;;7.54;100.00
41945;BME280;63122;52.424;13.458;2023-04-01T17:25:27;99921.56;;;7.55;100.00
41945;BME280;63122;52.424;13.458;2023-04-01T17:27:41;99930.00;;;7.49;100.00
41945;BME280;63122;52.424;13.458;2023-04-01T17:35:37;99934.59;;;7.47;100.00
41945;BME280;63122;52.424;13.458;2023-04-01T17:41:51;99955.31;;;7.22;100.00
41945;BME280;63122;52.424;13.458;2023-04-01T17:44:05;99954.63;;;7.20;100.00
41945;BME280;63122;52.424;13.458;2023-04-01T17:47:02;99951.22;;;7.19;100.00
41945;BME280;63122;52.424;13.458;2023-04-01T17:49:49;99960.84;;;7.19;100.00
41945;BME280;63122;52.424;13.458;2023-04-01T17:52:24;99970.28;;;7.12;100.00
41945;BME280;63122;52.424;13.458;2023-04-01T18:02:17;99989.66;;;7.01;100.00
41945;BME280;63122;52.424;13.458;2023-04-01T18:04:46;99993.50;;;7.06;100.00
41945;BME280;63122;52.424;13.458;2023-04-01T18:07:06;99999.06;;;7.03;100.00
41945;BME280;63122;52.424;13.458;2023-04-01T18:09:25;100009.25;;;7.06;100.00
41945;BME280;63122;52.424;13.458;2023-04-01T18:11:53;100013.75;;;6.86;100.00
41945;BME280;63122;52.424;13.458;2023-04-01T18:14:13;100022.13;;;6.90;100.00
41945;BME280;63122;52.424;13.458;2023-04-01T18:16:42;100010.97;;;6.88;100.00
41945;BME280;63122;52.424;13.458;2023-04-01T18:18:50;100020.38;;;6.81;100.00
41945;BME280;63122;52.424;13.458;2023-04-01T18:20:56;100030.31;;;6.77;100.00
41945;BME280;63122;52.424;13.458;2023-04-01T18:23:04;100032.13;;;6.76;100.00
41945;BME280;63122;52.424;13.458;2023-04-01T18:25:15;100032.94;;;6.77;100.00
41945;BME280;63122;52.424;13.458;2023-04-01T18:27:17;100035.59;;;6.67;100.00
41945;BME280;63122;52.424;13.458;2023-04-01T18:29:25;100038.47;;;6.74;100.00
41945;BME280;63122;52.424;13.458;2023-04-01T18:31:32;100045.25;;;6.76;100.00
41945;BME280;63122;52.424;13.458;2023-04-01T18:33:36;100044.84;;;6.71;100.00
41945;BME280;63122;52.424;13.458;2023-04-01T18:35:48;100049.53;;;6.68;100.00
41945;BME280;63122;52.424;13.458;2023-04-01T18:37:57;100059.34;;;6.66;100.00
41945;BME280;63122;52.424;13.458;2023-04-01T18:40:03;100063.06;;;6.63;100.00
41945;BME280;63122;52.424;13.458;2023-04-01T18:42:19;100068.72;;;6.58;100.00
41945;BME280;63122;52.424;13.458;2023-04-01T18:44:26;100073.13;;;6.58;100.00
41945;BME280;63122;52.424;13.458;2023-04-01T18:46:29;100080.19;;;6.57;100.00
41945;BME280;63122;52.424;13.458;2023-04-01T18:48:41;100085.81;;;6.62;100.00
41945;BME280;63122;52.424;13.458;2023-04-01T19:26:04;100133.84;;;6.43;100.00
41945;BME280;63122;52.424;13.458;2023-04-01T19:28:20;100132.59;;;6.38;100.00
41945;BME280;63122;52.424;13.458;2023-04-01T19:30:32;100132.31;;;6.31;100.00
41945;BME280;63122;52.424;13.458;2023-04-01T19:32:49;100142.22;;;6.17;100.00
41945;BME280;63122;52.424;13.458;2023-04-01T19:34:57;100145.38;;;6.21;100.00
41945;BME280;63122;52.424;13.458;2023-04-01T19:38:04;100149.66;;;6.32;100.00
41945;BME280;63122;52.424;13.458;2023-04-01T19:54:04;100184.44;;;5.93;100.00
41945;BME280;63122;52.424;13.458;2023-04-01T19:56:23;100177.00;;;5.88;100.00
41945;BME280;63122;52.424;13.458;2023-04-01T19:58:36;100190.91;;;5.89;100.00
41945;BME280;63122;52.424;13.458;2023-04-01T20:00:41;100185.66;;;5.89;100.00
41945;BME280;63122;52.424;13.458;2023-04-01T20:18:16;100232.56;;;5.71;100.00
41945;BME280;63122;52.424;13.458;2023-04-01T20:20:34;100229.38;;;5.67;100.00
41945;BME280;63122;52.424;13.458;2023-04-01T20:23:05;100234.88;;;5.64;100.00
41945;BME280;63122;52.424;13.458;2023-04-01T20:29:55;100246.03;;;5.66;100.00
41945;BME280;63122;52.424;13.458;2023-04-01T20:49:49;100272.94;;;5.47;100.00
41945;BME280;63122;52.424;13.458;2023-04-01T21:40:09;100363.59;;;5.04;100.00
41945;BME280;63122;52.424;13.458;2023-04-01T21:42:21;100369.88;;;5.01;100.00
41945;BME280;63122;52.424;13.458;2023-04-01T21:44:40;100374.03;;;5.04;100.00
41945;BME280;63122;52.424;13.458;2023-04-01T21:46:58;100377.72;;;5.01;100.00
41945;BME280;63122;52.424;13.458;2023-04-01T21:49:20;100378.22;;;4.95;100.00
41945;BME280;63122;52.424;13.458;2023-04-01T21:51:49;100379.31;;;4.93;100.00
41945;BME280;63122;52.424;13.458;2023-04-01T22:05:55;100404.97;;;4.76;100.00
41945;BME280;63122;52.424;13.458;2023-04-01T22:08:04;100414.00;;;4.83;100.00
41945;BME280;63122;52.424;13.458;2023-04-01T22:15:44;100405.56;;;4.91;100.00
41945;BME280;63122;52.424;13.458;2023-04-01T22:16:58;100415.91;;;4.93;100.00
41945;BME280;63122;52.424;13.458;2023-04-01T22:20:10;100417.81;;;4.90;100.00
41945;BME280;63122;52.424;13.458;2023-04-01T22:23:13;100424.44;;;4.83;100.00
41945;BME280;63122;52.424;13.458;2023-04-01T22:25:51;100421.59;;;4.86;100.00
41945;BME280;63122;52.424;13.458;2023-04-01T22:27:55;100420.78;;;4.86;100.00
41945;BME280;63122;52.424;13.458;2023-04-01T22:30:09;100430.75;;;4.81;100.00